^^
Station Historical Data
Daily Summary for February 18, 2019 Units:  English    Metric   Both
« Previous Day
Next Day »
Daily Weekly Monthly Yearly Custom
  High: Low: Average:
Temperature: 8.3 °F -11.1 °F -1.3 °F
Dew Point: 3.2 °F -14.8 °F -5 °F
Humidity: 92% 75% 84%
Wind Speed: 6.0mph 0.0mph 2.4mph
Wind Gust: 8.0mph - -
Wind- - WSW
Pressure: 30.60 in 30.47 in -
Precipitation: 0.00 in    
Historical Graphs
 
 
Tabular Data for February 18, 2019
Time Temperature Dew Point Pressure Wind Wind Speed Wind Gust Humidity Rainfall Rate (Hourly) solar Conditions
00:04 -2.7 °F -5.9 °F 30.47 in NW 3.0 mph 5.0 mph 86% 0.00 in 0.00 W/m2
00:09 -2.8 °F -5.9 °F 30.47 in WNW 4.0 mph 4.0 mph 86% 0.00 in 0.00 W/m2
00:14 -3.6 °F -7.0 °F 30.47 in WNW 4.0 mph 5.0 mph 85% 0.00 in 0.00 W/m2
00:19 -3.6 °F -6.7 °F 30.47 in WNW 4.0 mph 5.0 mph 86% 0.00 in 0.00 W/m2
00:24 -3.3 °F -6.4 °F 30.48 in WNW 6.0 mph 6.0 mph 86% 0.00 in 0.00 W/m2
00:29 -3.0 °F -6.1 °F 30.48 in NW 3.0 mph 6.0 mph 86% 0.00 in 0.00 W/m2
00:34 -3.1 °F -6.2 °F 30.48 in NNW 4.0 mph 6.0 mph 86% 0.00 in 0.00 W/m2
00:39 -3.6 °F -7.0 °F 30.48 in NW 4.0 mph 5.0 mph 85% 0.00 in 0.00 W/m2
00:44 -3.9 °F -7.3 °F 30.48 in NW 5.0 mph 5.0 mph 85% 0.00 in 0.00 W/m2
00:49 -3.7 °F -6.8 °F 30.48 in NW 3.0 mph 5.0 mph 86% 0.00 in 0.00 W/m2
00:54 -3.5 °F -6.6 °F 30.48 in NW 3.0 mph 5.0 mph 86% 0.00 in 0.00 W/m2
00:59 -3.9 °F -7.3 °F 30.49 in NW 3.0 mph 3.0 mph 85% 0.00 in 0.00 W/m2
01:04 -4.3 °F -7.7 °F 30.49 in NW 2.0 mph 4.0 mph 85% 0.00 in 0.00 W/m2
01:09 -4.3 °F -7.7 °F 30.49 in NW 3.0 mph 4.0 mph 85% 0.00 in 0.00 W/m2
01:14 -4.0 °F -7.1 °F 30.49 in NW 2.0 mph 4.0 mph 86% 0.00 in 0.00 W/m2
01:19 -3.7 °F -6.8 °F 30.49 in NW 3.0 mph 4.0 mph 86% 0.00 in 0.00 W/m2
01:24 -3.4 °F -6.3 °F 30.49 in NW 3.0 mph 4.0 mph 87% 0.00 in 0.00 W/m2
01:29 -3.2 °F -6.1 °F 30.49 in NW 3.0 mph 4.0 mph 87% 0.00 in 0.00 W/m2
01:34 -3.3 °F -6.4 °F 30.49 in NNW 4.0 mph 5.0 mph 86% 0.00 in 0.00 W/m2
01:39 -3.6 °F -6.7 °F 30.50 in WNW 3.0 mph 5.0 mph 86% 0.00 in 0.00 W/m2
01:44 -4.3 °F -7.7 °F 30.50 in WNW 3.0 mph 5.0 mph 85% 0.00 in 0.00 W/m2
01:49 -4.4 °F -7.8 °F 30.50 in WNW 4.0 mph 4.0 mph 85% 0.00 in 0.00 W/m2
01:54 -4.2 °F -7.3 °F 30.50 in NW 4.0 mph 5.0 mph 86% 0.00 in 0.00 W/m2
01:59 -4.1 °F -7.2 °F 30.50 in NW 3.0 mph 5.0 mph 86% 0.00 in 0.00 W/m2
02:04 -4.1 °F -7.2 °F 30.50 in NW 3.0 mph 5.0 mph 86% 0.00 in 0.00 W/m2
02:09 -4.1 °F -7.2 °F 30.50 in NW 4.0 mph 4.0 mph 86% 0.00 in 0.00 W/m2
02:14 -4.1 °F -7.2 °F 30.50 in NW 3.0 mph 4.0 mph 86% 0.00 in 0.00 W/m2
02:19 -4.1 °F -7.2 °F 30.50 in NNW 4.0 mph 5.0 mph 86% 0.00 in 0.00 W/m2
02:24 -4.2 °F -7.3 °F 30.50 in NNW 3.0 mph 5.0 mph 86% 0.00 in 0.00 W/m2
02:29 -4.1 °F -7.2 °F 30.51 in NNW 3.0 mph 5.0 mph 86% 0.00 in 0.00 W/m2
02:34 -4.1 °F -7.2 °F 30.51 in NNW 4.0 mph 5.0 mph 86% 0.00 in 0.00 W/m2
02:39 -4.1 °F -7.2 °F 30.51 in NW 3.0 mph 5.0 mph 86% 0.00 in 0.00 W/m2
02:44 -4.7 °F -8.1 °F 30.51 in NW 1.0 mph 5.0 mph 85% 0.00 in 0.00 W/m2
02:49 -4.7 °F -8.1 °F 30.52 in NW 3.0 mph 4.0 mph 85% 0.00 in 0.00 W/m2
02:54 -4.6 °F -7.7 °F 30.52 in NW 3.0 mph 4.0 mph 86% 0.00 in 0.00 W/m2
02:59 -4.4 °F -7.5 °F 30.52 in NW 3.0 mph 4.0 mph 86% 0.00 in 0.00 W/m2
03:04 -4.3 °F -7.4 °F 30.52 in NW 2.0 mph 4.0 mph 86% 0.00 in 0.00 W/m2
03:09 -4.1 °F -7.2 °F 30.52 in NW 2.0 mph 4.0 mph 86% 0.00 in 0.00 W/m2
03:14 -4.1 °F -7.2 °F 30.52 in NW 3.0 mph 4.0 mph 86% 0.00 in 0.00 W/m2
03:19 -4.3 °F -7.4 °F 30.52 in NW 3.0 mph 4.0 mph 86% 0.00 in 0.00 W/m2
03:24 -4.3 °F -7.4 °F 30.52 in NW 4.0 mph 4.0 mph 86% 0.00 in 0.00 W/m2
03:29 -4.4 °F -7.5 °F 30.52 in NW 4.0 mph 4.0 mph 86% 0.00 in 0.00 W/m2
03:34 -4.4 °F -7.5 °F 30.52 in NW 4.0 mph 4.0 mph 86% 0.00 in 0.00 W/m2
03:39 -4.3 °F -7.4 °F 30.52 in NW 4.0 mph 4.0 mph 86% 0.00 in 0.00 W/m2
03:44 -4.2 °F -7.3 °F 30.52 in NW 4.0 mph 4.0 mph 86% 0.00 in 0.00 W/m2
03:49 -4.2 °F -7.3 °F 30.52 in NW 4.0 mph 4.0 mph 86% 0.00 in 0.00 W/m2
03:54 -4.3 °F -7.7 °F 30.52 in NW 4.0 mph 4.0 mph 85% 0.00 in 0.00 W/m2
03:59 -4.5 °F -7.9 °F 30.52 in NW 4.0 mph 4.0 mph 85% 0.00 in 0.00 W/m2
04:04 -4.4 °F -7.5 °F 30.52 in NW 4.0 mph 4.0 mph 86% 0.00 in 0.00 W/m2
04:09 -4.5 °F -7.9 °F 30.52 in NW 4.0 mph 4.0 mph 85% 0.00 in 0.00 W/m2
04:14 -4.8 °F -8.2 °F 30.52 in NW 4.0 mph 4.0 mph 85% 0.00 in 0.00 W/m2
04:19 -5.2 °F -8.6 °F 30.53 in NW 4.0 mph 4.0 mph 85% 0.00 in 0.00 W/m2
04:24 -5.6 °F -8.9 °F 30.53 in NW 4.0 mph 4.0 mph 85% 0.00 in 0.00 W/m2
04:29 -5.7 °F -9.0 °F 30.53 in NW 4.0 mph 4.0 mph 85% 0.00 in 0.00 W/m2
04:34 -5.8 °F -9.1 °F 30.53 in NNW 3.0 mph 4.0 mph 85% 0.00 in 0.00 W/m2
04:39 -5.8 °F -9.1 °F 30.53 in NNW 3.0 mph 4.0 mph 85% 0.00 in 0.00 W/m2
04:44 -5.7 °F -9.0 °F 30.53 in NNW 3.0 mph 4.0 mph 85% 0.00 in 0.00 W/m2
04:49 -5.7 °F -9.0 °F 30.53 in NNW 2.0 mph 4.0 mph 85% 0.00 in 0.00 W/m2
04:54 -5.7 °F -9.0 °F 30.53 in NNW 2.0 mph 4.0 mph 85% 0.00 in 0.00 W/m2
04:59 -5.8 °F -9.1 °F 30.53 in NNW 3.0 mph 3.0 mph 85% 0.00 in 0.00 W/m2
05:04 -5.8 °F -9.1 °F 30.53 in NNW 3.0 mph 3.0 mph 85% 0.00 in 0.00 W/m2
05:09 -5.7 °F -9.0 °F 30.53 in NNW 2.0 mph 4.0 mph 85% 0.00 in 0.00 W/m2
05:14 -5.5 °F -8.6 °F 30.53 in NNW 2.0 mph 4.0 mph 86% 0.00 in 0.00 W/m2
05:19 -5.5 °F -8.8 °F 30.53 in Calm   3.0 mph 85% 0.00 in 0.00 W/m2
05:24 -5.5 °F -8.8 °F 30.53 in NNW 1.0 mph 3.0 mph 85% 0.00 in 0.00 W/m2
05:29 -5.8 °F -9.1 °F 30.53 in Calm   2.0 mph 85% 0.00 in 0.00 W/m2
05:34 -6.1 °F -9.7 °F 30.53 in Calm   1.0 mph 84% 0.00 in 0.00 W/m2
05:39 -6.2 °F -9.5 °F 30.53 in NNW 1.0 mph 3.0 mph 85% 0.00 in 0.00 W/m2
05:44 -6.4 °F -9.7 °F 30.53 in NNW 2.0 mph 3.0 mph 85% 0.00 in 0.00 W/m2
05:49 -6.6 °F -9.9 °F 30.53 in NNW 1.0 mph 3.0 mph 85% 0.00 in 0.00 W/m2
05:54 -6.7 °F -10.0 °F 30.53 in Calm   2.0 mph 85% 0.00 in 0.00 W/m2
05:59 -6.9 °F -10.2 °F 30.53 in Calm   2.0 mph 85% 0.00 in 0.00 W/m2
06:04 -6.9 °F -10.2 °F 30.54 in Calm   1.0 mph 85% 0.00 in 0.00 W/m2
06:09 -6.7 °F -10.0 °F 30.54 in NNW 2.0 mph 3.0 mph 85% 0.00 in 0.00 W/m2
06:14 -6.5 °F -9.6 °F 30.54 in NNW 1.0 mph 3.0 mph 86% 0.00 in 0.00 W/m2
06:19 -6.5 °F -9.8 °F 30.54 in Calm   3.0 mph 85% 0.00 in 0.00 W/m2
06:24 -6.4 °F -9.7 °F 30.54 in NNW 2.0 mph 2.0 mph 85% 0.00 in 0.00 W/m2
06:29 -6.3 °F -9.4 °F 30.54 in NNW 2.0 mph 3.0 mph 86% 0.00 in 0.00 W/m2
06:34 -6.3 °F -9.6 °F 30.54 in NNW 2.0 mph 3.0 mph 85% 0.00 in 0.00 W/m2
06:39 -6.1 °F -9.2 °F 30.54 in NNW 2.0 mph 3.0 mph 86% 0.00 in 0.00 W/m2
06:44 -5.7 °F -8.8 °F 30.54 in NNW 2.0 mph 3.0 mph 86% 0.00 in 0.00 W/m2
06:49 -5.6 °F -8.7 °F 30.54 in NNW 1.0 mph 3.0 mph 86% 0.00 in 0.00 W/m2
06:54 -5.7 °F -8.8 °F 30.54 in NNW 3.0 mph 3.0 mph 86% 0.00 in 0.00 W/m2
06:59 -6.3 °F -9.6 °F 30.54 in WNW 4.0 mph 5.0 mph 85% 0.00 in 0.00 W/m2
07:04 -8.2 °F -12.0 °F 30.54 in WNW 2.0 mph 5.0 mph 83% 0.00 in 0.00 W/m2
07:09 -9.4 °F -13.2 °F 30.55 in West 2.0 mph 4.0 mph 83% 0.00 in 0.00 W/m2
07:14 -10.3 °F -14.0 °F 30.55 in West 3.0 mph 4.0 mph 83% 0.00 in 0.00 W/m2
07:19 -10.9 °F -14.6 °F 30.55 in West 3.0 mph 4.0 mph 83% 0.00 in 0.00 W/m2
07:24 -11.1 °F -14.8 °F 30.55 in West 3.0 mph 4.0 mph 83% 0.00 in 0.00 W/m2
07:29 -10.7 °F -14.0 °F 30.55 in Calm   3.0 mph 85% 0.00 in 0.00 W/m2
07:34 -10.1 °F -13.4 °F 30.55 in Calm     85% 0.00 in 0.00 W/m2
07:39 -9.3 °F -12.1 °F 30.55 in Calm     87% 0.00 in 5.00 W/m2
07:44 -8.7 °F -11.5 °F 30.55 in Calm   1.0 mph 87% 0.00 in 7.00 W/m2
07:49 -8.3 °F -11.4 °F 30.55 in Calm   1.0 mph 86% 0.00 in 9.00 W/m2
07:54 -7.9 °F -11.0 °F 30.55 in West 1.0 mph 2.0 mph 86% 0.00 in 12.00 W/m2
07:59 -7.3 °F -10.1 °F 30.55 in Calm   2.0 mph 87% 0.00 in 18.00 W/m2
08:04 -7.2 °F -10.3 °F 30.56 in Calm   2.0 mph 86% 0.00 in 23.00 W/m2
08:09 -7.1 °F -10.2 °F 30.56 in Calm     86% 0.00 in 30.00 W/m2
08:14 -6.8 °F -9.9 °F 30.56 in Calm     86% 0.00 in 35.00 W/m2
08:19 -6.6 °F -9.7 °F 30.57 in Calm     86% 0.00 in 42.00 W/m2
08:24 -6.5 °F -9.8 °F 30.57 in West 1.0 mph 1.0 mph 85% 0.00 in 49.00 W/m2
08:29 -6.6 °F -9.9 °F 30.57 in West 2.0 mph 2.0 mph 85% 0.00 in 58.00 W/m2
08:34 -6.6 °F -9.9 °F 30.57 in WNW 1.0 mph 2.0 mph 85% 0.00 in 65.00 W/m2
08:39 -6.7 °F -10.0 °F 30.57 in WNW 1.0 mph 2.0 mph 85% 0.00 in 72.00 W/m2
08:44 -6.7 °F -10.0 °F 30.57 in WNW 2.0 mph 2.0 mph 85% 0.00 in 79.00 W/m2
08:49 -6.4 °F -9.7 °F 30.57 in WNW 1.0 mph 2.0 mph 85% 0.00 in 86.00 W/m2
08:54 -6.0 °F -9.1 °F 30.57 in WNW 1.0 mph 2.0 mph 86% 0.00 in 91.00 W/m2
08:59 -5.5 °F -8.6 °F 30.57 in WNW 1.0 mph 2.0 mph 86% 0.00 in 98.00 W/m2
09:04 -5.0 °F -8.1 °F 30.57 in Calm   2.0 mph 86% 0.00 in 105.00 W/m2
09:09 -4.5 °F -7.6 °F 30.57 in Calm   2.0 mph 86% 0.00 in 125.00 W/m2
09:14 -3.8 °F -6.9 °F 30.57 in Calm     86% 0.00 in 142.00 W/m2
09:19 -3.3 °F -6.7 °F 30.57 in Calm     85% 0.00 in 142.00 W/m2
09:24 -3.2 °F -6.6 °F 30.57 in Calm     85% 0.00 in 146.00 W/m2
09:29 -3.2 °F -6.8 °F 30.57 in Calm     84% 0.00 in 155.00 W/m2
09:34 -3.3 °F -6.9 °F 30.57 in Calm     84% 0.00 in 176.00 W/m2
09:39 -3.8 °F -7.7 °F 30.57 in Calm   1.0 mph 83% 0.00 in 190.00 W/m2
09:44 -4.2 °F -8.1 °F 30.58 in Calm   1.0 mph 83% 0.00 in 214.00 W/m2
09:49 -4.5 °F -8.4 °F 30.58 in Calm   2.0 mph 83% 0.00 in 227.00 W/m2
09:54 -4.4 °F -8.3 °F 30.58 in Calm   2.0 mph 83% 0.00 in 244.00 W/m2
09:59 -3.7 °F -7.3 °F 30.58 in Calm     84% 0.00 in 250.00 W/m2
10:04 -3.6 °F -7.2 °F 30.58 in WNW 2.0 mph 2.0 mph 84% 0.00 in 257.00 W/m2
10:09 -3.7 °F -7.3 °F 30.58 in WNW 1.0 mph 2.0 mph 84% 0.00 in 283.00 W/m2
10:14 -3.7 °F -7.6 °F 30.58 in WNW 1.0 mph 2.0 mph 83% 0.00 in 294.00 W/m2
10:19 -3.8 °F -7.7 °F 30.58 in WNW 1.0 mph 2.0 mph 83% 0.00 in 276.00 W/m2
10:24 -3.7 °F -7.3 °F 30.58 in WNW 1.0 mph 2.0 mph 84% 0.00 in 304.00 W/m2
10:29 -4.1 °F -8.0 °F 30.59 in WNW 1.0 mph 3.0 mph 83% 0.00 in 338.00 W/m2
10:34 -4.4 °F -8.3 °F 30.58 in Calm   3.0 mph 83% 0.00 in 302.00 W/m2
10:39 -4.3 °F -8.2 °F 30.58 in WNW 1.0 mph 2.0 mph 83% 0.00 in 348.00 W/m2
10:44 -4.1 °F -8.0 °F 30.59 in Calm   2.0 mph 83% 0.00 in 367.00 W/m2
10:49 -3.5 °F -7.1 °F 30.59 in Calm   2.0 mph 84% 0.00 in 401.00 W/m2
10:54 -2.9 °F -6.5 °F 30.59 in WNW 1.0 mph 2.0 mph 84% 0.00 in 429.00 W/m2
10:59 -2.4 °F -5.8 °F 30.59 in WNW 2.0 mph 2.0 mph 85% 0.00 in 443.00 W/m2
11:04 -2.0 °F -5.6 °F 30.59 in WNW 1.0 mph 2.0 mph 84% 0.00 in 413.00 W/m2
11:09 -1.7 °F -5.1 °F 30.59 in WNW 1.0 mph 2.0 mph 85% 0.00 in 443.00 W/m2
11:14 -1.1 °F -4.5 °F 30.59 in WNW 1.0 mph 2.0 mph 85% 0.00 in 443.00 W/m2
11:19 -0.9 °F -4.3 °F 30.59 in WNW 2.0 mph 3.0 mph 85% 0.00 in 424.00 W/m2
11:24 -0.8 °F -4.2 °F 30.60 in WNW 2.0 mph 3.0 mph 85% 0.00 in 413.00 W/m2
11:29 -0.8 °F -4.5 °F 30.60 in West 2.0 mph 3.0 mph 84% 0.00 in 410.00 W/m2
11:34 -0.7 °F -4.1 °F 30.60 in West 3.0 mph 3.0 mph 85% 0.00 in 415.00 W/m2
11:39 -0.8 °F -4.5 °F 30.60 in West 2.0 mph 3.0 mph 84% 0.00 in 418.00 W/m2
11:44 -0.6 °F -4.0 °F 30.60 in West 1.0 mph 3.0 mph 85% 0.00 in 462.00 W/m2
11:49 -0.1 °F -3.5 °F 30.60 in Calm   2.0 mph 85% 0.00 in 471.00 W/m2
11:54 0.6 °F -2.8 °F 30.60 in West 1.0 mph 2.0 mph 85% 0.00 in 448.00 W/m2
11:59 0.9 °F -2.6 °F 30.60 in West 2.0 mph 2.0 mph 85% 0.00 in 422.00 W/m2
12:04 1.1 °F -2.4 °F 30.60 in West 1.0 mph 3.0 mph 85% 0.00 in 422.00 W/m2
12:09 1.3 °F -1.9 °F 30.60 in West 1.0 mph 3.0 mph 86% 0.00 in 429.00 W/m2
12:14 1.7 °F -1.5 °F 30.60 in West 1.0 mph 2.0 mph 86% 0.00 in 464.00 W/m2
12:19 1.9 °F -1.6 °F 30.60 in West 2.0 mph 3.0 mph 85% 0.00 in 473.00 W/m2
12:24 2.1 °F -1.4 °F 30.60 in West 2.0 mph 3.0 mph 85% 0.00 in 471.00 W/m2
12:29 2.4 °F -1.1 °F 30.60 in Calm   3.0 mph 85% 0.00 in 466.00 W/m2
12:34 2.6 °F -0.9 °F 30.60 in West 2.0 mph 2.0 mph 85% 0.00 in 466.00 W/m2
12:39 2.9 °F -0.6 °F 30.60 in West 1.0 mph 2.0 mph 85% 0.00 in 513.00 W/m2
12:44 3.5 °F 0.0 °F 30.60 in WSW 1.0 mph 3.0 mph 85% 0.00 in 524.00 W/m2
12:49 4.1 °F 0.6 °F 30.60 in SW 2.0 mph 3.0 mph 85% 0.00 in 482.00 W/m2
12:54 5.3 °F 2.0 °F 30.60 in SW 1.0 mph 3.0 mph 86% 0.00 in 489.00 W/m2
12:59 5.3 °F 1.5 °F 30.59 in WSW 3.0 mph 4.0 mph 84% 0.00 in 452.00 W/m2
13:04 4.4 °F 0.1 °F 30.59 in WSW 3.0 mph 4.0 mph 82% 0.00 in 471.00 W/m2
13:09 4.1 °F 0.1 °F 30.59 in WSW 1.0 mph 4.0 mph 83% 0.00 in 427.00 W/m2
13:14 4.1 °F 0.1 °F 30.59 in WSW 1.0 mph 4.0 mph 83% 0.00 in 454.00 W/m2
13:19 4.5 °F 0.5 °F 30.59 in WSW 1.0 mph 4.0 mph 83% 0.00 in 540.00 W/m2
13:24 4.9 °F 0.9 °F 30.58 in WSW 2.0 mph 4.0 mph 83% 0.00 in 606.00 W/m2
13:29 5.1 °F 1.1 °F 30.58 in WSW 3.0 mph 4.0 mph 83% 0.00 in 534.00 W/m2
13:34 5.2 °F 0.9 °F 30.58 in WSW 2.0 mph 4.0 mph 82% 0.00 in 527.00 W/m2
13:39 5.6 °F 1.3 °F 30.58 in WSW 4.0 mph 4.0 mph 82% 0.00 in 526.00 W/m2
13:44 5.8 °F 1.5 °F 30.58 in WSW 2.0 mph 4.0 mph 82% 0.00 in 526.00 W/m2
13:49 5.9 °F 1.3 °F 30.58 in WSW 3.0 mph 4.0 mph 81% 0.00 in 554.00 W/m2
13:54 6.0 °F 1.4 °F 30.58 in WSW 2.0 mph 4.0 mph 81% 0.00 in 527.00 W/m2
13:59 6.2 °F 1.4 °F 30.57 in WSW 1.0 mph 4.0 mph 80% 0.00 in 510.00 W/m2
14:04 6.2 °F 1.4 °F 30.57 in WSW 3.0 mph 4.0 mph 80% 0.00 in 462.00 W/m2
14:09 6.2 °F 1.1 °F 30.57 in WSW 3.0 mph 4.0 mph 79% 0.00 in 446.00 W/m2
14:14 6.3 °F 1.2 °F 30.57 in WSW 2.0 mph 4.0 mph 79% 0.00 in 422.00 W/m2
14:19 6.4 °F 1.0 °F 30.57 in WSW 1.0 mph 3.0 mph 78% 0.00 in 397.00 W/m2
14:24 6.3 °F 0.9 °F 30.57 in WSW 2.0 mph 4.0 mph 78% 0.00 in 383.00 W/m2
14:29 6.3 °F 0.9 °F 30.58 in WSW 3.0 mph 4.0 mph 78% 0.00 in 410.00 W/m2
14:34 6.8 °F 1.4 °F 30.57 in WSW 3.0 mph 4.0 mph 78% 0.00 in 450.00 W/m2
14:39 7.2 °F 1.8 °F 30.57 in WSW 2.0 mph 3.0 mph 78% 0.00 in 480.00 W/m2
14:44 7.4 °F 2.0 °F 30.57 in WSW 3.0 mph 4.0 mph 78% 0.00 in 446.00 W/m2
14:49 7.4 °F 1.7 °F 30.57 in WSW 2.0 mph 4.0 mph 77% 0.00 in 468.00 W/m2
14:54 7.8 °F 2.1 °F 30.57 in WSW 1.0 mph 4.0 mph 77% 0.00 in 446.00 W/m2
14:59 8.0 °F 2.0 °F 30.57 in WSW 3.0 mph 3.0 mph 76% 0.00 in 330.00 W/m2
15:04 7.8 °F 1.8 °F 30.57 in SW 2.0 mph 3.0 mph 76% 0.00 in 302.00 W/m2
15:09 8.2 °F 2.5 °F 30.57 in SW 1.0 mph 4.0 mph 77% 0.00 in 332.00 W/m2
15:14 8.3 °F 2.0 °F 30.57 in SW 2.0 mph 4.0 mph 75% 0.00 in 294.00 W/m2
15:19 7.9 °F 1.9 °F 30.57 in SW 2.0 mph 3.0 mph 76% 0.00 in 269.00 W/m2
15:24 7.6 °F 1.6 °F 30.57 in SW 4.0 mph 4.0 mph 76% 0.00 in 267.00 W/m2
15:29 7.3 °F 1.3 °F 30.57 in SW 3.0 mph 4.0 mph 76% 0.00 in 246.00 W/m2
15:34 7.1 °F 1.4 °F 30.57 in SW 2.0 mph 5.0 mph 77% 0.00 in 230.00 W/m2
15:39 7.2 °F 1.5 °F 30.57 in SW 3.0 mph 6.0 mph 77% 0.00 in 227.00 W/m2
15:44 7.2 °F 1.5 °F 30.57 in SW 3.0 mph 6.0 mph 77% 0.00 in 204.00 W/m2
15:49 6.9 °F 1.2 °F 30.57 in WSW 3.0 mph 6.0 mph 77% 0.00 in 186.00 W/m2
15:54 6.7 °F 1.3 °F 30.56 in WSW 2.0 mph 5.0 mph 78% 0.00 in 181.00 W/m2
15:59 6.6 °F 1.2 °F 30.56 in SW 3.0 mph 4.0 mph 78% 0.00 in 169.00 W/m2
16:04 6.5 °F 1.4 °F 30.56 in SW 2.0 mph 4.0 mph 79% 0.00 in 167.00 W/m2
16:09 6.4 °F 1.3 °F 30.56 in SW 2.0 mph 4.0 mph 79% 0.00 in 165.00 W/m2
16:14 6.3 °F 1.2 °F 30.56 in SW 2.0 mph 3.0 mph 79% 0.00 in 162.00 W/m2
16:19 6.2 °F 1.1 °F 30.56 in SW 2.0 mph 2.0 mph 79% 0.00 in 162.00 W/m2
16:24 6.2 °F 1.4 °F 30.56 in SW 1.0 mph 2.0 mph 80% 0.00 in 160.00 W/m2
16:29 6.0 °F 1.2 °F 30.56 in SW 2.0 mph 3.0 mph 80% 0.00 in 162.00 W/m2
16:34 5.8 °F 1.0 °F 30.55 in West 3.0 mph 4.0 mph 80% 0.00 in 163.00 W/m2
16:39 5.6 °F 0.8 °F 30.55 in West 2.0 mph 4.0 mph 80% 0.00 in 160.00 W/m2
16:44 5.6 °F 1.0 °F 30.55 in West 3.0 mph 3.0 mph 81% 0.00 in 153.00 W/m2
16:49 5.5 °F 0.9 °F 30.55 in West 3.0 mph 3.0 mph 81% 0.00 in 142.00 W/m2
16:54 5.5 °F 0.9 °F 30.55 in West 2.0 mph 4.0 mph 81% 0.00 in 130.00 W/m2
16:59 5.3 °F 0.7 °F 30.55 in West 2.0 mph 4.0 mph 81% 0.00 in 114.00 W/m2
17:04 5.3 °F 1.0 °F 30.55 in West 2.0 mph 3.0 mph 82% 0.00 in 100.00 W/m2
17:09 5.2 °F 0.9 °F 30.55 in Calm   3.0 mph 82% 0.00 in 88.00 W/m2
17:14 5.0 °F 0.7 °F 30.55 in West 1.0 mph 2.0 mph 82% 0.00 in 79.00 W/m2
17:19 5.0 °F 0.7 °F 30.55 in West 1.0 mph 2.0 mph 82% 0.00 in 74.00 W/m2
17:24 4.9 °F 0.6 °F 30.55 in West 1.0 mph 2.0 mph 82% 0.00 in 69.00 W/m2
17:29 4.9 °F 0.6 °F 30.55 in Calm   2.0 mph 82% 0.00 in 63.00 W/m2
17:34 4.9 °F 0.6 °F 30.55 in Calm   1.0 mph 82% 0.00 in 58.00 W/m2
17:39 4.9 °F 0.6 °F 30.55 in Calm     82% 0.00 in 53.00 W/m2
17:44 4.9 °F 0.6 °F 30.55 in Calm     82% 0.00 in 51.00 W/m2
17:49 5.0 °F 1.0 °F 30.55 in Calm     83% 0.00 in 47.00 W/m2
17:54 5.1 °F 1.1 °F 30.55 in West 2.0 mph 2.0 mph 83% 0.00 in 44.00 W/m2
17:59 5.1 °F 0.8 °F 30.55 in Calm   2.0 mph 82% 0.00 in 37.00 W/m2
18:04 5.1 °F 0.8 °F 30.55 in Calm   2.0 mph 82% 0.00 in 30.00 W/m2
18:09 5.0 °F 3.2 °F 30.55 in Calm   1.0 mph 92% 0.00 in 21.00 W/m2
18:14 4.7 °F 0.2 °F 30.55 in West 2.0 mph 3.0 mph 81% 0.00 in 14.00 W/m2
18:19 4.5 °F 0.2 °F 30.55 in West 2.0 mph 3.0 mph 82% 0.00 in 7.00 W/m2
18:24 4.1 °F -0.4 °F 30.55 in West 2.0 mph 3.0 mph 81% 0.00 in 0.00 W/m2
18:29 3.8 °F -0.5 °F 30.55 in NW 3.0 mph 3.0 mph 82% 0.00 in 0.00 W/m2
18:34 3.5 °F -0.8 °F 30.55 in NNW 3.0 mph 3.0 mph 82% 0.00 in 0.00 W/m2
18:39 3.1 °F -1.2 °F 30.55 in NNW 2.0 mph 3.0 mph 82% 0.00 in 0.00 W/m2
18:44 2.9 °F -1.3 °F 30.55 in NNW 3.0 mph 3.0 mph 82% 0.00 in 0.00 W/m2
18:49 2.7 °F -1.3 °F 30.55 in NNW 3.0 mph 3.0 mph 83% 0.00 in 0.00 W/m2
18:54 2.4 °F -1.6 °F 30.55 in NNE 2.0 mph 4.0 mph 83% 0.00 in 0.00 W/m2
18:59 2.3 °F -1.7 °F 30.55 in NNE 3.0 mph 4.0 mph 83% 0.00 in 0.00 W/m2
19:04 2.2 °F -1.5 °F 30.55 in NE 2.0 mph 4.0 mph 84% 0.00 in 0.00 W/m2
19:09 1.7 °F -2.3 °F 30.55 in NE 2.0 mph 3.0 mph 83% 0.00 in 0.00 W/m2
19:14 0.9 °F -3.3 °F 30.55 in NE 2.0 mph 3.0 mph 82% 0.00 in 0.00 W/m2
19:19 0.3 °F -3.6 °F 30.56 in ENE 3.0 mph 4.0 mph 83% 0.00 in 0.00 W/m2
19:24 0.0 °F -3.7 °F 30.55 in ESE 3.0 mph 5.0 mph 84% 0.00 in 0.00 W/m2
19:29 -0.1 °F -3.8 °F 30.56 in ESE 3.0 mph 5.0 mph 84% 0.00 in 0.00 W/m2
19:34 -0.1 °F -3.5 °F 30.55 in ESE 3.0 mph 4.0 mph 85% 0.00 in 0.00 W/m2
19:39 0.0 °F -3.4 °F 30.55 in ESE 3.0 mph 4.0 mph 85% 0.00 in 0.00 W/m2
19:44 -0.1 °F -3.5 °F 30.55 in ESE 3.0 mph 4.0 mph 85% 0.00 in 0.00 W/m2
19:49 0.0 °F -3.4 °F 30.56 in ESE 2.0 mph 4.0 mph 85% 0.00 in 0.00 W/m2
19:54 0.0 °F -3.2 °F 30.56 in ESE 3.0 mph 4.0 mph 86% 0.00 in 0.00 W/m2
19:59 0.0 °F -3.2 °F 30.55 in ESE 3.0 mph 4.0 mph 86% 0.00 in 0.00 W/m2
20:04 -0.1 °F -3.3 °F 30.56 in ESE 3.0 mph 4.0 mph 86% 0.00 in 0.00 W/m2
20:09 -0.2 °F -3.4 °F 30.56 in ESE 3.0 mph 4.0 mph 86% 0.00 in 0.00 W/m2
20:14 -0.3 °F -3.5 °F 30.56 in ESE 3.0 mph 4.0 mph 86% 0.00 in 0.00 W/m2
20:19 -0.6 °F -3.8 °F 30.55 in ESE 3.0 mph 4.0 mph 86% 0.00 in 0.00 W/m2
20:24 -0.8 °F -4.0 °F 30.55 in ESE 5.0 mph 5.0 mph 86% 0.00 in 0.00 W/m2
20:29 -1.0 °F -4.2 °F 30.55 in SE 5.0 mph 5.0 mph 86% 0.00 in 0.00 W/m2
20:34 -1.1 °F -4.3 °F 30.56 in SE 4.0 mph 6.0 mph 86% 0.00 in 0.00 W/m2
20:39 -1.3 °F -4.5 °F 30.55 in SE 4.0 mph 6.0 mph 86% 0.00 in 0.00 W/m2
20:44 -1.6 °F -4.8 °F 30.55 in SSE 4.0 mph 6.0 mph 86% 0.00 in 0.00 W/m2
20:49 -2.0 °F -5.2 °F 30.56 in SSE 4.0 mph 5.0 mph 86% 0.00 in 0.00 W/m2
20:54 -2.1 °F -5.3 °F 30.56 in SSE 3.0 mph 6.0 mph 86% 0.00 in 0.00 W/m2
20:59 -2.2 °F -5.4 °F 30.56 in SSE 4.0 mph 6.0 mph 86% 0.00 in 0.00 W/m2
21:04 -2.2 °F -5.4 °F 30.56 in SSE 5.0 mph 5.0 mph 86% 0.00 in 0.00 W/m2
21:09 -2.1 °F -5.0 °F 30.56 in South 5.0 mph 8.0 mph 87% 0.00 in 0.00 W/m2
21:14 -1.6 °F -4.5 °F 30.55 in South 5.0 mph 8.0 mph 87% 0.00 in 0.00 W/m2
21:19 -1.5 °F -4.4 °F 30.55 in South 5.0 mph 8.0 mph 87% 0.00 in 0.00 W/m2
21:24 -1.6 °F -4.5 °F 30.55 in South 5.0 mph 8.0 mph 87% 0.00 in 0.00 W/m2
21:29 -1.9 °F -5.1 °F 30.55 in South 5.0 mph 8.0 mph 86% 0.00 in 0.00 W/m2
21:34 -2.1 °F -5.3 °F 30.55 in SSE 4.0 mph 5.0 mph 86% 0.00 in 0.00 W/m2
21:39 -2.4 °F -5.6 °F 30.55 in SSE 4.0 mph 5.0 mph 86% 0.00 in 0.00 W/m2
21:44 -3.0 °F -6.1 °F 30.55 in SSE 5.0 mph 6.0 mph 86% 0.00 in 0.00 W/m2
21:49 -3.2 °F -6.6 °F 30.55 in SSE 5.0 mph 6.0 mph 85% 0.00 in 0.00 W/m2
21:54 -3.4 °F -6.5 °F 30.55 in SSE 5.0 mph 6.0 mph 86% 0.00 in 0.00 W/m2
21:59 -3.4 °F -6.5 °F 30.55 in SSE 4.0 mph 6.0 mph 86% 0.00 in 0.00 W/m2
22:04 -3.4 °F -6.5 °F 30.55 in SSE 5.0 mph 6.0 mph 86% 0.00 in 0.00 W/m2
22:09 -3.4 °F -6.5 °F 30.55 in SSE 5.0 mph 6.0 mph 86% 0.00 in 0.00 W/m2
22:14 -3.6 °F -6.7 °F 30.55 in SE 5.0 mph 6.0 mph 86% 0.00 in 0.00 W/m2
22:19 -3.9 °F -7.0 °F 30.55 in SSE 5.0 mph 6.0 mph 86% 0.00 in 0.00 W/m2
22:24 -3.9 °F -7.0 °F 30.55 in SSE 5.0 mph 6.0 mph 86% 0.00 in 0.00 W/m2
22:29 -4.0 °F -7.1 °F 30.55 in SSE 5.0 mph 6.0 mph 86% 0.00 in 0.00 W/m2
22:34 -4.1 °F -7.2 °F 30.55 in SSE 5.0 mph 6.0 mph 86% 0.00 in 0.00 W/m2
22:39 -4.2 °F -7.3 °F 30.55 in SSE 4.0 mph 6.0 mph 86% 0.00 in 0.00 W/m2
22:44 -4.3 °F -7.4 °F 30.55 in SSE 4.0 mph 6.0 mph 86% 0.00 in 0.00 W/m2
22:49 -4.3 °F -7.4 °F 30.55 in SSE 5.0 mph 6.0 mph 86% 0.00 in 0.00 W/m2
22:54 -4.2 °F -7.3 °F 30.55 in SSE 5.0 mph 5.0 mph 86% 0.00 in 0.00 W/m2
22:59 -4.1 °F -7.2 °F 30.55 in SSE 5.0 mph 6.0 mph 86% 0.00 in 0.00 W/m2
23:04 -3.8 °F -6.9 °F 30.55 in SSE 5.0 mph 6.0 mph 86% 0.00 in 0.00 W/m2
23:09 -3.9 °F -7.0 °F 30.54 in SE 4.0 mph 6.0 mph 86% 0.00 in 0.00 W/m2
23:14 -3.9 °F -7.0 °F 30.54 in SE 4.0 mph 6.0 mph 86% 0.00 in 0.00 W/m2
23:19 -4.0 °F -7.1 °F 30.54 in SSE 5.0 mph 6.0 mph 86% 0.00 in 0.00 W/m2
23:24 -4.0 °F -7.1 °F 30.54 in SE 5.0 mph 6.0 mph 86% 0.00 in 0.00 W/m2
23:29 -3.8 °F -6.9 °F 30.54 in SE 6.0 mph 6.0 mph 86% 0.00 in 0.00 W/m2
23:34 -3.8 °F -6.9 °F 30.54 in SE 4.0 mph 6.0 mph 86% 0.00 in 0.00 W/m2
23:39 -3.9 °F -7.0 °F 30.54 in SSE 4.0 mph 6.0 mph 86% 0.00 in 0.00 W/m2
23:44 -4.3 °F -7.4 °F 30.54 in SSE 5.0 mph 6.0 mph 86% 0.00 in 0.00 W/m2
23:49 -4.6 °F -7.7 °F 30.54 in SSE 4.0 mph 5.0 mph 86% 0.00 in 0.00 W/m2
23:54 -4.5 °F -7.6 °F 30.54 in SSE 3.0 mph 5.0 mph 86% 0.00 in 0.00 W/m2
23:59 -4.4 °F -7.5 °F 30.53 in SSE 5.0 mph 5.0 mph 86% 0.00 in 0.00 W/m2
Bismarck, North Dakota, USA
Compliments of Weather Underground - 4 mb